createdAt,value
2018-11-23T00:00:21.642Z,37.33
2018-11-23T00:02:50.406Z,37.27
2018-11-23T00:05:18.909Z,36.47
2018-11-23T00:07:47.495Z,38.63
2018-11-23T00:10:16.997Z,35.30
2018-11-23T00:12:45.255Z,37.33
2018-11-23T00:15:15.592Z,34.30
2018-11-23T00:17:43.805Z,32.70
2018-11-23T00:20:14.787Z,33.73
2018-11-23T00:22:43.015Z,36.57
2018-11-23T00:25:13.302Z,30.07
2018-11-23T00:27:41.576Z,31.53
2018-11-23T00:30:12.830Z,35.40
2018-11-23T00:32:41.398Z,38.90
2018-11-23T00:35:11.447Z,36.70
2018-11-23T00:37:39.640Z,33.50
2018-11-23T00:40:10.355Z,38.67
2018-11-23T00:42:38.598Z,34.87
2018-11-23T00:45:08.272Z,37.73
2018-11-23T00:47:36.571Z,34.73
2018-11-23T00:50:04.871Z,58.23
2018-11-23T00:52:33.042Z,41.27
2018-11-23T00:55:01.245Z,36.27
2018-11-23T00:57:29.437Z,39.60
2018-11-23T00:59:57.618Z,35.17
2018-11-23T01:02:25.821Z,33.97
2018-11-23T01:04:53.999Z,35.90
2018-11-23T01:07:22.211Z,38.47
2018-11-23T01:09:50.428Z,34.90
2018-11-23T01:12:18.626Z,38.27
2018-11-23T01:14:46.827Z,38.80
2018-11-23T01:17:15.022Z,34.10
2018-11-23T01:19:43.304Z,33.93
2018-11-23T01:22:11.508Z,33.13
2018-11-23T01:24:39.746Z,32.63
2018-11-23T01:27:07.950Z,37.47
2018-11-23T01:29:36.152Z,33.87
2018-11-23T01:32:04.391Z,31.57
2018-11-23T01:34:32.610Z,37.40
2018-11-23T01:37:00.808Z,34.90
2018-11-23T01:39:28.987Z,39.20
2018-11-23T01:41:57.197Z,38.60
2018-11-23T01:44:25.440Z,31.43
2018-11-23T01:46:53.643Z,36.43
2018-11-23T01:49:21.827Z,34.70
2018-11-23T01:51:50.031Z,33.07
2018-11-23T01:54:18.252Z,36.20
2018-11-23T01:56:46.448Z,32.53
2018-11-23T01:59:14.649Z,33.60
2018-11-23T02:01:42.841Z,35.30
2018-11-23T02:04:11.027Z,34.30
2018-11-23T02:06:39.223Z,34.17
2018-11-23T02:09:07.826Z,38.03
2018-11-23T02:11:36.071Z,32.43
2018-11-23T02:14:04.276Z,31.57
2018-11-23T02:16:32.452Z,36.63
2018-11-23T02:19:00.669Z,36.37
2018-11-23T02:21:28.859Z,36.63
2018-11-23T02:23:57.063Z,38.40
2018-11-23T02:26:25.249Z,35.43
2018-11-23T02:28:53.459Z,37.23
2018-11-23T02:31:27.012Z,37.63
2018-11-23T02:33:55.232Z,38.10
2018-11-23T02:36:23.457Z,44.70
2018-11-23T02:38:51.650Z,36.30
2018-11-23T02:41:19.855Z,36.77
2018-11-23T02:43:48.382Z,38.57
2018-11-23T02:46:16.558Z,38.77
2018-11-23T02:48:44.769Z,40.73
2018-11-23T02:51:12.948Z,40.43
2018-11-23T02:53:41.159Z,40.47
2018-11-23T02:56:09.354Z,39.00
2018-11-23T02:58:37.638Z,40.40
2018-11-23T03:01:05.886Z,40.10
2018-11-23T03:03:34.088Z,37.17
2018-11-23T03:06:02.282Z,38.90
2018-11-23T03:08:30.491Z,40.03
2018-11-23T03:10:58.688Z,35.97
2018-11-23T03:13:26.867Z,34.97
2018-11-23T03:15:55.076Z,38.17
2018-11-23T03:18:23.266Z,36.00
2018-11-23T03:20:51.470Z,36.30
2018-11-23T03:23:19.667Z,39.10
2018-11-23T03:25:47.859Z,38.70
2018-11-23T03:28:16.063Z,37.60
2018-11-23T03:30:44.251Z,37.40
2018-11-23T03:33:12.451Z,41.63
2018-11-23T03:35:40.642Z,34.03
2018-11-23T03:38:08.834Z,40.80
2018-11-23T03:40:37.015Z,35.77
2018-11-23T03:43:05.228Z,41.23
2018-11-23T03:45:33.414Z,36.67
2018-11-23T03:48:01.612Z,39.07
2018-11-23T03:50:29.807Z,38.00
2018-11-23T03:52:58.011Z,34.43
2018-11-23T03:55:26.215Z,38.83
2018-11-23T03:57:54.430Z,41.47
2018-11-23T04:00:23.627Z,41.37
2018-11-23T04:02:52.303Z,38.10
2018-11-23T04:05:20.672Z,35.77
2018-11-23T04:07:48.874Z,36.47
2018-11-23T04:10:17.556Z,39.57
2018-11-23T04:12:46.030Z,38.77
2018-11-23T04:15:14.708Z,34.73
2018-11-23T04:17:43.199Z,34.87
2018-11-23T04:20:12.896Z,36.37
2018-11-23T04:22:41.786Z,37.23
2018-11-23T04:25:10.281Z,34.10
2018-11-23T04:27:38.499Z,40.93
2018-11-23T04:30:09.967Z,40.83
2018-11-23T04:32:38.187Z,39.63
2018-11-23T04:35:07.979Z,41.00
2018-11-23T04:37:36.179Z,36.67
2018-11-23T04:40:04.612Z,40.17
2018-11-23T04:42:32.820Z,43.30
2018-11-23T04:45:01.024Z,37.60
2018-11-23T04:47:29.214Z,42.07
2018-11-23T04:49:57.419Z,35.80
2018-11-23T04:52:25.614Z,40.47
2018-11-23T04:54:53.802Z,35.40
2018-11-23T04:57:22.010Z,38.77
2018-11-23T04:59:50.255Z,32.57
2018-11-23T05:02:18.440Z,37.07
2018-11-23T05:04:46.626Z,42.77
2018-11-23T05:07:14.823Z,33.00
2018-11-23T05:09:43.023Z,35.17
2018-11-23T05:12:11.207Z,35.30
2018-11-23T05:14:39.407Z,39.23
2018-11-23T05:17:07.590Z,41.37
2018-11-23T05:19:35.791Z,33.77
2018-11-23T05:22:04.023Z,32.50
2018-11-23T05:24:32.227Z,36.23
2018-11-23T05:27:00.410Z,32.27
2018-11-23T05:29:28.616Z,36.13
2018-11-23T05:31:56.812Z,33.40
2018-11-23T05:34:25.030Z,39.43
2018-11-23T05:36:53.227Z,36.93
2018-11-23T05:39:21.413Z,38.47
2018-11-23T05:41:49.590Z,40.63
2018-11-23T05:44:17.770Z,38.50
2018-11-23T05:46:45.951Z,37.70
2018-11-23T05:49:14.155Z,38.07
2018-11-23T05:51:42.338Z,41.20
2018-11-23T05:54:10.534Z,40.73
2018-11-23T05:56:38.717Z,35.63
2018-11-23T05:59:06.983Z,42.60
2018-11-23T06:01:35.177Z,39.93
2018-11-23T06:04:03.370Z,38.23
2018-11-23T06:06:31.571Z,36.60
2018-11-23T06:08:59.778Z,40.30
2018-11-23T06:11:28.022Z,37.73
2018-11-23T06:13:56.259Z,41.30
2018-11-23T06:16:24.433Z,39.50
2018-11-23T06:18:52.655Z,36.07
2018-11-23T06:21:20.867Z,43.63
2018-11-23T06:23:49.094Z,40.23
2018-11-23T06:26:19.789Z,40.33
2018-11-23T06:28:48.055Z,39.40
2018-11-23T06:31:16.224Z,43.43
2018-11-23T06:33:45.673Z,47.37
2018-11-23T06:36:13.919Z,46.73
2018-11-23T06:38:42.154Z,38.93
2018-11-23T06:41:10.810Z,48.50
2018-11-23T06:43:38.867Z,42.60
2018-11-23T06:46:08.495Z,43.97
2018-11-23T06:48:36.719Z,40.57
2018-11-23T06:51:05.539Z,40.43
2018-11-23T06:53:33.822Z,49.63
2018-11-23T06:56:02.526Z,41.90
2018-11-23T06:58:30.736Z,42.80
2018-11-23T07:00:58.996Z,44.20
2018-11-23T07:03:27.458Z,41.10
2018-11-23T07:05:56.184Z,46.60
2018-11-23T07:08:24.714Z,40.97
2018-11-23T07:10:53.315Z,41.43
2018-11-23T07:13:21.556Z,40.97
2018-11-23T07:15:49.764Z,37.97
2018-11-23T07:18:17.951Z,46.90
2018-11-23T07:20:46.175Z,48.10
2018-11-23T07:23:14.372Z,45.70
2018-11-23T07:25:42.574Z,39.50
2018-11-23T07:28:15.453Z,37.70
2018-11-23T07:30:39.023Z,37.70
2018-11-23T07:33:07.235Z,37.40
2018-11-23T07:35:35.495Z,39.57
2018-11-23T07:38:03.708Z,45.70
2018-11-23T07:40:45.714Z,51.50
2018-11-23T07:43:13.963Z,44.17
2018-11-23T07:45:42.183Z,42.73
2018-11-23T07:48:10.660Z,41.40
2018-11-23T07:50:39.163Z,47.00
2018-11-23T07:53:07.513Z,50.40
2018-11-23T07:55:35.777Z,49.10
2018-11-23T07:58:04.246Z,48.17
2018-11-23T08:00:32.984Z,49.67
2018-11-23T08:03:01.183Z,51.50
2018-11-23T08:05:29.404Z,46.00
2018-11-23T08:07:57.604Z,46.23
2018-11-23T08:10:25.180Z,60.80
2018-11-23T08:12:53.533Z,54.40
2018-11-23T08:15:23.166Z,56.43
2018-11-23T08:17:51.431Z,46.67
2018-11-23T08:20:23.860Z,57.27
2018-11-23T08:22:52.045Z,60.90
2018-11-23T08:25:21.276Z,57.00
2018-11-23T08:27:50.559Z,53.37
2018-11-23T08:30:20.904Z,55.30
2018-11-23T08:32:49.231Z,56.33
2018-11-23T08:35:17.486Z,55.43
2018-11-23T08:37:45.706Z,61.70
2018-11-23T08:40:18.074Z,55.13
2018-11-23T08:42:47.184Z,58.97
2018-11-23T08:45:16.638Z,54.63
2018-11-23T08:47:44.845Z,54.17
2018-11-23T08:50:16.641Z,49.93
2018-11-23T08:52:44.887Z,51.40
2018-11-23T08:55:14.100Z,50.70
2018-11-23T08:57:42.702Z,54.00
2018-11-23T09:00:20.127Z,52.87
2018-11-23T09:02:49.593Z,58.67
2018-11-23T09:05:18.171Z,61.00
2018-11-23T09:07:47.375Z,50.07
2018-11-23T09:10:17.479Z,50.30
2018-11-23T09:12:48.399Z,54.60
2018-11-23T09:15:17.565Z,51.37
2018-11-23T09:17:45.490Z,58.23
2018-11-23T09:20:14.396Z,54.67
2018-11-23T09:22:42.609Z,49.00
2018-11-23T09:25:13.386Z,50.47
2018-11-23T09:27:41.599Z,50.53
2018-11-23T09:30:16.068Z,48.27
2018-11-23T09:32:44.677Z,48.10
2018-11-23T09:35:12.973Z,45.30
2018-11-23T09:37:41.539Z,49.10
2018-11-23T09:40:12.467Z,46.63
2018-11-23T09:42:40.979Z,49.90
2018-11-23T09:45:11.271Z,47.57
2018-11-23T09:47:39.495Z,45.97
2018-11-23T09:50:10.179Z,40.50
2018-11-23T09:52:38.394Z,42.83
2018-11-23T09:55:07.141Z,51.83
2018-11-23T09:57:35.339Z,41.13
2018-11-23T10:00:03.985Z,45.17
2018-11-23T10:02:32.195Z,50.17
2018-11-23T10:05:00.379Z,40.83
2018-11-23T10:07:28.591Z,49.10
2018-11-23T10:09:56.779Z,42.20
2018-11-23T10:12:25.025Z,40.77
2018-11-23T10:14:53.450Z,43.67
2018-11-23T10:17:21.658Z,60.07
2018-11-23T10:19:49.871Z,44.33
2018-11-23T10:22:18.094Z,38.90
2018-11-23T10:24:46.311Z,36.40
2018-11-23T10:27:14.539Z,36.33
2018-11-23T10:29:42.729Z,34.60
2018-11-23T10:32:10.947Z,38.50
2018-11-23T10:34:39.147Z,35.00
2018-11-23T10:37:07.355Z,39.60
2018-11-23T10:39:35.546Z,40.63
2018-11-23T10:42:03.754Z,43.63
2018-11-23T10:44:31.945Z,38.90
2018-11-23T10:47:00.144Z,40.53
2018-11-23T10:49:28.339Z,43.90
2018-11-23T10:51:56.560Z,39.87
2018-11-23T10:54:24.772Z,51.07
2018-11-23T10:56:52.971Z,42.00
2018-11-23T10:59:21.151Z,49.07
2018-11-23T11:01:54.905Z,42.60
2018-11-23T11:04:28.396Z,46.60
2018-11-23T11:07:00.854Z,42.20
2018-11-23T11:09:29.083Z,45.07
2018-11-23T11:11:57.348Z,40.47
2018-11-23T11:14:25.548Z,43.43
2018-11-23T11:16:53.755Z,45.43
2018-11-23T11:19:21.959Z,42.63
2018-11-23T11:21:50.162Z,48.20
2018-11-23T11:24:18.347Z,51.30
2018-11-23T11:26:46.555Z,42.87
2018-11-23T11:29:14.743Z,49.53
2018-11-23T11:31:42.931Z,48.73
2018-11-23T11:34:11.162Z,47.73
2018-11-23T11:36:39.362Z,48.63
2018-11-23T11:39:10.751Z,47.47
2018-11-23T11:41:39.044Z,43.90
2018-11-23T11:44:07.271Z,56.63
2018-11-23T11:46:35.505Z,49.80
2018-11-23T11:49:03.753Z,51.73
2018-11-23T11:51:31.980Z,46.40
2018-11-23T11:54:00.191Z,47.67
2018-11-23T11:56:28.417Z,53.93
2018-11-23T11:58:56.635Z,63.57
2018-11-23T12:01:25.947Z,63.37
2018-11-23T12:03:54.477Z,53.47
2018-11-23T12:06:22.693Z,55.10
2018-11-23T12:08:50.917Z,57.40
2018-11-23T12:11:19.119Z,57.80
2018-11-23T12:13:47.322Z,62.77
2018-11-23T12:16:15.527Z,49.23
2018-11-23T12:18:43.740Z,53.70
2018-11-23T12:21:11.962Z,49.20
2018-11-23T12:23:40.185Z,50.57
2018-11-23T12:26:09.238Z,45.50
2018-11-23T12:28:37.425Z,52.97
2018-11-23T12:31:05.667Z,53.00
2018-11-23T12:33:33.988Z,51.53
2018-11-23T12:36:02.231Z,58.63
2018-11-23T12:38:30.463Z,55.13
2018-11-23T12:40:58.691Z,54.17
2018-11-23T12:43:26.914Z,52.60
2018-11-23T12:45:55.144Z,54.37
2018-11-23T12:48:23.366Z,53.80
2018-11-23T12:50:51.591Z,56.40
2018-11-23T12:53:19.812Z,57.30
2018-11-23T12:55:48.038Z,55.23
2018-11-23T12:58:16.269Z,54.23
2018-11-23T13:00:44.494Z,54.63
2018-11-23T13:03:12.715Z,57.77
2018-11-23T13:05:40.936Z,58.60
2018-11-23T13:08:09.156Z,54.40
2018-11-23T13:10:37.443Z,60.90
2018-11-23T13:13:05.689Z,59.50
2018-11-23T13:15:35.464Z,52.33
2018-11-23T13:18:03.694Z,60.33
2018-11-23T13:20:33.015Z,58.63
2018-11-23T13:23:01.240Z,56.37
2018-11-23T13:25:31.052Z,55.87
2018-11-23T13:27:59.533Z,54.57
2018-11-23T13:30:35.087Z,57.03
2018-11-23T13:33:03.332Z,58.10
2018-11-23T13:35:31.613Z,49.70
2018-11-23T13:37:59.850Z,55.37
2018-11-23T13:40:28.904Z,55.60
2018-11-23T13:42:58.084Z,54.73
2018-11-23T13:45:27.811Z,59.20
2018-11-23T13:47:56.019Z,57.03
2018-11-23T13:50:24.988Z,56.07
2018-11-23T13:52:54.771Z,50.93
2018-11-23T13:55:23.076Z,50.57
2018-11-23T13:57:51.275Z,50.33
2018-11-23T14:00:21.868Z,51.00
2018-11-23T14:02:50.079Z,49.63
2018-11-23T14:05:19.676Z,47.90
2018-11-23T14:07:49.251Z,47.87
2018-11-23T14:10:18.876Z,46.80
2018-11-23T14:12:47.231Z,56.20
2018-11-23T14:15:20.751Z,53.10
2018-11-23T14:17:49.835Z,46.23
2018-11-23T14:20:18.728Z,46.60
2018-11-23T14:22:46.991Z,47.87
2018-11-23T14:25:16.620Z,47.70
2018-11-23T14:27:45.286Z,44.17
2018-11-23T14:30:15.647Z,47.27
2018-11-23T14:32:43.877Z,49.07
2018-11-23T14:35:14.434Z,47.60
2018-11-23T14:37:43.206Z,53.10
2018-11-23T14:40:12.345Z,57.00
2018-11-23T14:42:41.724Z,48.83
2018-11-23T14:45:13.264Z,53.63
2018-11-23T14:47:41.859Z,50.63
2018-11-23T14:50:16.687Z,52.20
2018-11-23T14:52:46.250Z,56.70
2018-11-23T14:55:14.864Z,49.83
2018-11-23T14:57:43.668Z,52.20
2018-11-23T15:00:17.155Z,54.13
2018-11-23T15:02:46.388Z,59.37
2018-11-23T15:05:15.147Z,51.50
2018-11-23T15:07:43.378Z,50.37
2018-11-23T15:10:14.577Z,60.67
2018-11-23T15:12:43.263Z,51.17
2018-11-23T15:15:14.702Z,54.77
2018-11-23T15:17:44.015Z,50.00
2018-11-23T15:20:16.099Z,52.90
2018-11-23T15:22:44.743Z,53.67
2018-11-23T15:25:13.061Z,53.50
2018-11-23T15:27:42.130Z,54.47
2018-11-23T15:30:14.296Z,54.00
2018-11-23T15:32:43.171Z,50.40
2018-11-23T15:35:11.411Z,49.07
2018-11-23T15:37:39.638Z,51.27
2018-11-23T15:40:10.685Z,53.00
2018-11-23T15:42:38.927Z,54.10
2018-11-23T15:45:10.098Z,55.50
2018-11-23T15:47:38.315Z,59.37
2018-11-23T15:50:08.591Z,56.93
2018-11-23T15:52:36.846Z,63.63
2018-11-23T15:55:07.690Z,59.03
2018-11-23T15:57:35.943Z,58.60
2018-11-23T16:00:04.800Z,62.43
2018-11-23T16:02:33.038Z,59.10
2018-11-23T16:05:01.300Z,58.20
2018-11-23T16:07:29.647Z,59.90
2018-11-23T16:09:58.581Z,70.77
2018-11-23T16:12:26.799Z,65.60
2018-11-23T16:14:54.995Z,67.60
2018-11-23T16:17:23.211Z,61.17
2018-11-23T16:19:51.433Z,69.23
2018-11-23T16:22:19.659Z,67.93
2018-11-23T16:24:47.890Z,69.43
2018-11-23T16:27:16.110Z,66.37
2018-11-23T16:29:44.320Z,66.60
2018-11-23T16:32:12.543Z,64.53
2018-11-23T16:34:40.775Z,78.57
2018-11-23T16:37:09.019Z,70.83
2018-11-23T16:39:37.235Z,71.97
2018-11-23T16:42:05.774Z,71.30
2018-11-23T16:44:34.009Z,69.37
2018-11-23T16:47:02.243Z,63.63
2018-11-23T16:49:30.464Z,73.90
2018-11-23T16:51:58.716Z,64.80
2018-11-23T16:54:26.936Z,73.90
2018-11-23T16:56:55.149Z,62.90
2018-11-23T16:59:23.390Z,69.13
2018-11-23T17:01:51.610Z,66.23
2018-11-23T17:04:19.851Z,69.00
2018-11-23T17:06:48.092Z,67.00
2018-11-23T17:09:16.328Z,70.60
2018-11-23T17:11:44.543Z,70.70
2018-11-23T17:14:12.771Z,73.10
2018-11-23T17:16:41.010Z,69.63
2018-11-23T17:19:09.236Z,82.43
2018-11-23T17:21:37.459Z,64.53
2018-11-23T17:24:05.728Z,71.73
2018-11-23T17:26:33.938Z,75.13
2018-11-23T17:29:02.226Z,76.53
2018-11-23T17:31:30.463Z,64.50
2018-11-23T17:33:58.709Z,78.10
2018-11-23T17:36:26.948Z,80.17
2018-11-23T17:38:55.190Z,76.57
2018-11-23T17:41:23.426Z,65.37
2018-11-23T17:43:51.651Z,81.17
2018-11-23T17:46:19.891Z,88.83
2018-11-23T17:48:48.173Z,68.50
2018-11-23T17:51:16.386Z,73.23
2018-11-23T17:53:44.636Z,78.13
2018-11-23T17:56:12.878Z,70.83
2018-11-23T17:58:41.152Z,77.00
2018-11-23T18:01:09.639Z,83.03
2018-11-23T18:03:37.875Z,73.00
2018-11-23T18:06:06.542Z,71.80
2018-11-23T18:08:38.886Z,80.50
2018-11-23T18:11:03.053Z,71.97
2018-11-23T18:13:31.308Z,75.03
2018-11-23T18:15:59.535Z,80.60
2018-11-23T18:18:27.982Z,79.67
2018-11-23T18:20:56.214Z,68.13
2018-11-23T18:23:24.450Z,83.47
2018-11-23T18:25:52.670Z,77.97
2018-11-23T18:28:20.894Z,71.27
2018-11-23T18:30:49.124Z,77.47
2018-11-23T18:33:17.356Z,76.17
2018-11-23T18:35:45.604Z,75.53
2018-11-23T18:38:13.824Z,73.37
2018-11-23T18:40:42.051Z,63.03
2018-11-23T18:43:10.282Z,63.10
2018-11-23T18:45:38.510Z,63.97
2018-11-23T18:48:06.739Z,58.53
2018-11-23T18:50:34.975Z,57.50
2018-11-23T18:53:03.201Z,67.87
2018-11-23T18:55:31.443Z,68.33
2018-11-23T18:57:59.666Z,62.50
2018-11-23T19:00:27.886Z,65.63
2018-11-23T19:02:56.126Z,61.50
2018-11-23T19:05:25.838Z,61.93
2018-11-23T19:07:54.076Z,60.50
2018-11-23T19:10:22.297Z,60.30
2018-11-23T19:12:50.510Z,62.37
2018-11-23T19:15:25.192Z,67.47
2018-11-23T19:17:47.407Z,80.03
2018-11-23T19:20:17.746Z,64.33
2018-11-23T19:22:48.248Z,62.40
2018-11-23T19:25:16.471Z,60.23
2018-11-23T19:27:44.740Z,64.60
2018-11-23T19:30:14.120Z,64.83
2018-11-23T19:32:42.513Z,66.17
2018-11-23T19:35:10.749Z,68.03
2018-11-23T19:37:38.983Z,66.17
2018-11-23T19:40:10.518Z,72.23
2018-11-23T19:42:38.879Z,58.90
2018-11-23T19:45:09.505Z,60.27
2018-11-23T19:47:37.735Z,61.83
2018-11-23T19:50:08.531Z,68.13
2018-11-23T19:52:36.762Z,64.40
2018-11-23T19:55:05.310Z,59.30
2018-11-23T19:57:33.524Z,85.30
2018-11-23T20:00:01.768Z,65.77
2018-11-23T20:02:30.007Z,79.10
2018-11-23T20:04:58.224Z,94.27
2018-11-23T20:07:26.449Z,69.50
2018-11-23T20:09:54.678Z,75.57
2018-11-23T20:12:22.904Z,67.07
2018-11-23T20:14:51.720Z,72.47
2018-11-23T20:17:27.116Z,67.30
2018-11-23T20:19:55.357Z,77.13
2018-11-23T20:22:23.576Z,65.43
2018-11-23T20:24:51.803Z,69.53
2018-11-23T20:27:20.028Z,65.73
2018-11-23T20:29:48.251Z,59.60
2018-11-23T20:32:16.468Z,61.43
2018-11-23T20:34:44.688Z,70.50
2018-11-23T20:37:12.908Z,76.60
2018-11-23T20:39:41.133Z,74.80
2018-11-23T20:42:09.387Z,67.10
2018-11-23T20:44:37.621Z,70.07
2018-11-23T20:47:05.840Z,68.07
2018-11-23T20:49:34.103Z,65.70
2018-11-23T20:52:02.481Z,65.37
2018-11-23T20:54:30.535Z,59.03
2018-11-23T20:56:58.731Z,65.17
2018-11-23T20:59:26.952Z,57.53
2018-11-23T21:01:55.176Z,62.63
2018-11-23T21:04:23.424Z,60.20
2018-11-23T21:06:51.677Z,55.53
2018-11-23T21:09:19.920Z,55.83
2018-11-23T21:11:48.127Z,57.70
2018-11-23T21:14:16.347Z,63.27
2018-11-23T21:16:44.563Z,59.63
2018-11-23T21:19:12.755Z,56.50
2018-11-23T21:21:40.979Z,57.47
2018-11-23T21:24:09.172Z,59.00
2018-11-23T21:26:37.387Z,62.37
2018-11-23T21:29:05.607Z,60.73
2018-11-23T21:31:33.805Z,59.47
2018-11-23T21:34:02.057Z,67.93
2018-11-23T21:36:30.278Z,61.70
2018-11-23T21:38:58.767Z,62.67
2018-11-23T21:41:29.759Z,61.13
2018-11-23T21:43:55.208Z,59.80
2018-11-23T21:46:23.417Z,59.50
2018-11-23T21:48:51.641Z,67.30
2018-11-23T21:51:21.726Z,66.80
2018-11-23T21:53:50.008Z,60.87
2018-11-23T21:56:18.219Z,61.47
2018-11-23T21:58:46.479Z,58.13
2018-11-23T22:01:14.792Z,63.80
2018-11-23T22:03:42.999Z,56.50
2018-11-23T22:06:11.211Z,69.17
2018-11-23T22:08:39.470Z,55.43
2018-11-23T22:11:07.743Z,55.90
2018-11-23T22:13:35.992Z,52.80
2018-11-23T22:16:04.431Z,53.87
2018-11-23T22:18:32.699Z,56.03
2018-11-23T22:21:00.994Z,58.20
2018-11-23T22:23:29.254Z,48.77
2018-11-23T22:25:57.538Z,53.67
2018-11-23T22:28:25.807Z,50.17
2018-11-23T22:30:54.104Z,49.43
2018-11-23T22:33:22.364Z,53.27
2018-11-23T22:35:50.680Z,52.27
2018-11-23T22:38:18.903Z,50.07
2018-11-23T22:40:47.130Z,55.53
2018-11-23T22:43:15.364Z,58.57
2018-11-23T22:45:43.682Z,58.20
2018-11-23T22:48:11.966Z,55.33
2018-11-23T22:50:40.277Z,57.37
2018-11-23T22:53:08.555Z,54.63
2018-11-23T22:55:36.851Z,52.50
2018-11-23T22:58:05.366Z,53.00
2018-11-23T23:00:36.340Z,56.00
2018-11-23T23:03:04.669Z,48.50
2018-11-23T23:05:32.995Z,49.53
2018-11-23T23:08:01.267Z,52.13
2018-11-23T23:10:29.919Z,50.60
2018-11-23T23:12:58.250Z,55.97
2018-11-23T23:15:26.559Z,51.30
2018-11-23T23:17:54.886Z,51.03
2018-11-23T23:20:23.557Z,50.20
2018-11-23T23:22:51.852Z,47.90
2018-11-23T23:25:20.607Z,52.53
2018-11-23T23:27:48.910Z,50.70
2018-11-23T23:30:17.895Z,47.70
2018-11-23T23:32:48.272Z,48.60
2018-11-23T23:35:17.388Z,49.90
2018-11-23T23:37:45.753Z,51.13
2018-11-23T23:40:15.190Z,47.87
2018-11-23T23:42:43.548Z,47.00
2018-11-23T23:45:12.961Z,40.13
2018-11-23T23:47:41.280Z,43.23
2018-11-23T23:50:12.919Z,42.73
2018-11-23T23:52:41.229Z,44.20
2018-11-23T23:55:10.148Z,40.37
2018-11-23T23:57:39.224Z,43.13
